GAF350 ETHL-ETHC
Flight info
| Callsign | GAF350 |
|---|---|
| Flight time | 2h 21m |
| Altitude | 1111 |
| Route | VFR |
| Aircraft | EC45/L-SDE3FGHIRTWY/S |
Departure
| Time | 2026-04-20 13:14 |
|---|---|
| Airport | Laupheim Air Base (ETHL) |
Arrival
| Time | 2026-04-20 15:35 |
|---|---|
| Airport | Celle Army Airfield (ETHC) |
| Time | Latitude | Longitude | Altitude | Speed | Heading |
|---|---|---|---|---|---|
| 2026-04-20 13:06 | 48.21752 | 9.91215 | 1773 ft | 0 kts | 290° |
| 2026-04-20 13:09 | 48.21752 | 9.91214 | 1774 ft | 1 kts | 291° |
| 2026-04-20 13:09 | 48.21781 | 9.91210 | 1777 ft | 9 kts | 7° |
| 2026-04-20 13:10 | 48.21857 | 9.91221 | 1779 ft | 11 kts | 2° |
| 2026-04-20 13:10 | 48.21947 | 9.91227 | 1781 ft | 15 kts | 2° |
| 2026-04-20 13:10 | 48.22005 | 9.91121 | 1810 ft | 39 kts | 275° |
| 2026-04-20 13:10 | 48.22028 | 9.90523 | 1964 ft | 71 kts | 275° |
| 2026-04-20 13:11 | 48.22030 | 9.89691 | 2057 ft | 84 kts | 260° |
| 2026-04-20 13:11 | 48.21788 | 9.88834 | 2106 ft | 94 kts | 245° |
| 2026-04-20 13:11 | 48.21507 | 9.87873 | 2110 ft | 106 kts | 255° |
| 2026-04-20 13:11 | 48.21692 | 9.86836 | 2165 ft | 108 kts | 313° |
| 2026-04-20 13:12 | 48.22275 | 9.86113 | 2155 ft | 114 kts | 324° |
| 2026-04-20 13:12 | 48.22947 | 9.85422 | 2104 ft | 117 kts | 332° |
| 2026-04-20 13:12 | 48.23711 | 9.85343 | 2177 ft | 111 kts | 18° |
| 2026-04-20 13:12 | 48.24359 | 9.85983 | 2191 ft | 113 kts | 33° |
| 2026-04-20 13:13 | 48.25016 | 9.86664 | 2153 ft | 118 kts | 32° |
| 2026-04-20 13:13 | 48.25704 | 9.87322 | 2196 ft | 114 kts | 30° |
| 2026-04-20 13:13 | 48.26144 | 9.87730 | 2256 ft | 111 kts | 31° |
| 2026-04-20 13:13 | 48.26783 | 9.88362 | 2361 ft | 107 kts | 33° |
| 2026-04-20 13:14 | 48.27373 | 9.89025 | 2489 ft | 108 kts | 36° |
| 2026-04-20 13:14 | 48.27978 | 9.89805 | 2481 ft | 120 kts | 39° |
| 2026-04-20 13:14 | 48.28604 | 9.90673 | 2451 ft | 129 kts | 39° |
| 2026-04-20 13:14 | 48.29280 | 9.91588 | 2385 ft | 129 kts | 38° |
| 2026-04-20 13:15 | 48.30010 | 9.92285 | 2456 ft | 120 kts | 25° |
| 2026-04-20 13:15 | 48.30753 | 9.92742 | 2555 ft | 113 kts | 18° |
| 2026-04-20 13:15 | 48.31515 | 9.93094 | 2588 ft | 113 kts | 8° |
| 2026-04-20 13:15 | 48.32271 | 9.93377 | 2726 ft | 112 kts | 10° |
| 2026-04-20 13:16 | 48.33035 | 9.93658 | 2830 ft | 114 kts | 10° |
| 2026-04-20 13:16 | 48.33802 | 9.93939 | 2963 ft | 113 kts | 9° |
| 2026-04-20 13:16 | 48.34576 | 9.94220 | 2971 ft | 116 kts | 9° |
| 2026-04-20 13:16 | 48.35362 | 9.94502 | 2970 ft | 116 kts | 10° |
| 2026-04-20 13:17 | 48.36157 | 9.94787 | 2971 ft | 118 kts | 9° |
| 2026-04-20 13:17 | 48.36977 | 9.95085 | 2981 ft | 120 kts | 9° |
| 2026-04-20 13:17 | 48.37798 | 9.95382 | 2983 ft | 119 kts | 8° |
| 2026-04-20 13:17 | 48.38603 | 9.95672 | 2973 ft | 120 kts | 10° |
| 2026-04-20 13:18 | 48.39402 | 9.95962 | 2973 ft | 119 kts | 8° |
| 2026-04-20 13:18 | 48.40206 | 9.96256 | 2974 ft | 120 kts | 10° |
| 2026-04-20 13:18 | 48.41019 | 9.96554 | 2974 ft | 119 kts | 10° |
| 2026-04-20 13:18 | 48.41820 | 9.96849 | 2974 ft | 116 kts | 9° |
| 2026-04-20 13:19 | 48.42599 | 9.97137 | 2975 ft | 114 kts | 7° |
| 2026-04-20 13:19 | 48.43384 | 9.97428 | 2979 ft | 117 kts | 9° |
| 2026-04-20 13:19 | 48.44174 | 9.97719 | 2978 ft | 116 kts | 9° |
| 2026-04-20 13:19 | 48.44971 | 9.98010 | 2977 ft | 119 kts | 8° |
| 2026-04-20 13:20 | 48.45769 | 9.98302 | 2971 ft | 119 kts | 9° |
| 2026-04-20 13:20 | 48.46574 | 9.98599 | 2973 ft | 118 kts | 9° |
| 2026-04-20 13:20 | 48.47361 | 9.98887 | 2975 ft | 117 kts | 10° |
| 2026-04-20 13:20 | 48.48160 | 9.99180 | 2982 ft | 118 kts | 8° |
| 2026-04-20 13:21 | 48.48953 | 9.99469 | 2979 ft | 118 kts | 8° |
| 2026-04-20 13:21 | 48.49748 | 9.99761 | 2982 ft | 116 kts | 9° |
| 2026-04-20 13:21 | 48.50525 | 10.00044 | 2976 ft | 117 kts | 9° |
| 2026-04-20 13:21 | 48.51323 | 10.00337 | 2975 ft | 119 kts | 7° |
| 2026-04-20 13:22 | 48.52122 | 10.00631 | 2983 ft | 117 kts | 10° |
| 2026-04-20 13:22 | 48.52911 | 10.00917 | 2982 ft | 115 kts | 8° |
| 2026-04-20 13:22 | 48.53688 | 10.01200 | 2971 ft | 116 kts | 10° |
| 2026-04-20 13:22 | 48.54466 | 10.01490 | 2977 ft | 116 kts | 11° |
| 2026-04-20 13:23 | 48.55256 | 10.01786 | 2979 ft | 117 kts | 10° |
| 2026-04-20 13:23 | 48.56048 | 10.02081 | 2979 ft | 118 kts | 8° |
| 2026-04-20 13:23 | 48.56844 | 10.02374 | 2980 ft | 118 kts | 11° |
| 2026-04-20 13:23 | 48.57632 | 10.02666 | 2981 ft | 116 kts | 9° |
| 2026-04-20 13:24 | 48.58414 | 10.02954 | 2969 ft | 119 kts | 9° |
| 2026-04-20 13:24 | 48.59218 | 10.03252 | 2977 ft | 118 kts | 8° |
| 2026-04-20 13:24 | 48.60020 | 10.03547 | 2976 ft | 119 kts | 9° |
| 2026-04-20 13:24 | 48.60822 | 10.03845 | 2981 ft | 117 kts | 9° |
| 2026-04-20 13:25 | 48.61613 | 10.04138 | 2976 ft | 118 kts | 8° |
| 2026-04-20 13:25 | 48.62399 | 10.04429 | 2971 ft | 118 kts | 8° |
| 2026-04-20 13:25 | 48.63190 | 10.04724 | 2973 ft | 118 kts | 10° |
| 2026-04-20 13:25 | 48.63979 | 10.05017 | 2983 ft | 117 kts | 9° |
| 2026-04-20 13:26 | 48.64766 | 10.05304 | 2977 ft | 117 kts | 9° |
| 2026-04-20 13:26 | 48.65552 | 10.05596 | 2981 ft | 114 kts | 9° |
| 2026-04-20 13:26 | 48.66331 | 10.05886 | 2979 ft | 117 kts | 8° |
| 2026-04-20 13:26 | 48.67117 | 10.06175 | 2974 ft | 116 kts | 9° |
| 2026-04-20 13:27 | 48.67910 | 10.06475 | 2988 ft | 116 kts | 8° |
| 2026-04-20 13:27 | 48.68667 | 10.06757 | 2979 ft | 115 kts | 9° |
| 2026-04-20 13:27 | 48.69444 | 10.07044 | 2981 ft | 117 kts | 10° |
| 2026-04-20 13:27 | 48.70249 | 10.07342 | 2977 ft | 118 kts | 10° |
| 2026-04-20 13:28 | 48.71042 | 10.07639 | 2981 ft | 116 kts | 6° |
| 2026-04-20 13:28 | 48.71820 | 10.07928 | 2983 ft | 115 kts | 7° |
| 2026-04-20 13:28 | 48.72615 | 10.08221 | 2985 ft | 118 kts | 8° |
| 2026-04-20 13:28 | 48.73395 | 10.08508 | 2978 ft | 117 kts | 9° |
| 2026-04-20 13:29 | 48.74192 | 10.08804 | 2989 ft | 117 kts | 8° |
| 2026-04-20 13:29 | 48.74973 | 10.09093 | 2980 ft | 114 kts | 9° |
| 2026-04-20 13:29 | 48.75728 | 10.09379 | 2973 ft | 108 kts | 9° |
| 2026-04-20 13:29 | 48.76315 | 10.09630 | 2873 ft | 23 kts | 229° |
| 2026-04-20 13:30 | 48.76186 | 10.09707 | 1878 ft | 43 kts | 278° |
| 2026-04-20 13:30 | 48.76175 | 10.09264 | 2346 ft | 43 kts | 291° |
| 2026-04-20 13:30 | 48.76450 | 10.09043 | 2716 ft | 57 kts | 0° |
| 2026-04-20 13:30 | 48.76894 | 10.09343 | 2850 ft | 84 kts | 18° |
| 2026-04-20 13:31 | 48.77526 | 10.09699 | 2941 ft | 107 kts | 13° |
| 2026-04-20 13:31 | 48.78266 | 10.10067 | 2964 ft | 116 kts | 11° |
| 2026-04-20 13:31 | 48.79043 | 10.10423 | 2976 ft | 116 kts | 12° |
| 2026-04-20 13:31 | 48.79803 | 10.10752 | 2982 ft | 117 kts | 13° |
| 2026-04-20 13:32 | 48.80608 | 10.11088 | 2987 ft | 118 kts | 9° |
| 2026-04-20 13:32 | 48.81420 | 10.11417 | 3000 ft | 117 kts | 10° |
| 2026-04-20 13:32 | 48.82222 | 10.11735 | 2987 ft | 118 kts | 10° |
| 2026-04-20 13:32 | 48.83012 | 10.12043 | 2983 ft | 118 kts | 9° |
| 2026-04-20 13:33 | 48.83785 | 10.12338 | 2985 ft | 116 kts | 8° |
| 2026-04-20 13:33 | 48.84578 | 10.12641 | 2990 ft | 120 kts | 10° |
| 2026-04-20 13:33 | 48.85381 | 10.12944 | 2993 ft | 117 kts | 10° |
| 2026-04-20 13:33 | 48.86187 | 10.13254 | 2991 ft | 119 kts | 8° |
| 2026-04-20 13:34 | 48.86971 | 10.13551 | 2991 ft | 117 kts | 7° |
| 2026-04-20 13:34 | 48.87769 | 10.13848 | 2998 ft | 117 kts | 8° |
| 2026-04-20 13:34 | 48.88547 | 10.14136 | 2983 ft | 116 kts | 8° |
| 2026-04-20 13:34 | 48.89335 | 10.14434 | 2987 ft | 118 kts | 9° |
| 2026-04-20 13:35 | 48.90130 | 10.14735 | 2996 ft | 116 kts | 9° |
| 2026-04-20 13:35 | 48.90919 | 10.15032 | 2992 ft | 118 kts | 9° |
| 2026-04-20 13:35 | 48.91710 | 10.15332 | 2993 ft | 119 kts | 9° |
| 2026-04-20 13:35 | 48.92517 | 10.15634 | 3001 ft | 117 kts | 7° |
| 2026-04-20 13:36 | 48.93290 | 10.15920 | 2987 ft | 115 kts | 7° |
| 2026-04-20 13:36 | 48.94079 | 10.16220 | 2997 ft | 116 kts | 7° |
| 2026-04-20 13:36 | 48.94864 | 10.16515 | 2993 ft | 118 kts | 9° |
| 2026-04-20 13:36 | 48.95650 | 10.16809 | 2991 ft | 116 kts | 9° |
| 2026-04-20 13:37 | 48.96415 | 10.17097 | 2997 ft | 113 kts | 9° |
| 2026-04-20 13:37 | 48.97187 | 10.17388 | 2995 ft | 111 kts | 7° |
| 2026-04-20 13:37 | 48.97926 | 10.17669 | 2992 ft | 114 kts | 9° |
| 2026-04-20 13:37 | 48.98707 | 10.17965 | 3002 ft | 117 kts | 9° |
| 2026-04-20 13:38 | 48.99492 | 10.18260 | 2999 ft | 115 kts | 8° |
| 2026-04-20 13:38 | 49.00258 | 10.18551 | 2999 ft | 111 kts | 8° |
| 2026-04-20 13:38 | 49.01016 | 10.18840 | 3001 ft | 115 kts | 9° |
| 2026-04-20 13:38 | 49.01793 | 10.19133 | 3003 ft | 115 kts | 6° |
| 2026-04-20 13:39 | 49.02572 | 10.19422 | 3002 ft | 113 kts | 8° |
| 2026-04-20 13:39 | 49.03348 | 10.19713 | 3002 ft | 115 kts | 10° |
| 2026-04-20 13:39 | 49.04135 | 10.20012 | 2999 ft | 118 kts | 10° |
| 2026-04-20 13:39 | 49.04928 | 10.20311 | 3009 ft | 114 kts | 5° |
| 2026-04-20 13:40 | 49.05687 | 10.20594 | 2996 ft | 113 kts | 9° |
| 2026-04-20 13:40 | 49.06448 | 10.20881 | 2997 ft | 114 kts | 7° |
| 2026-04-20 13:40 | 49.07226 | 10.21173 | 3001 ft | 116 kts | 9° |
| 2026-04-20 13:40 | 49.08004 | 10.21466 | 2999 ft | 117 kts | 9° |
| 2026-04-20 13:41 | 49.08796 | 10.21766 | 3007 ft | 116 kts | 8° |
| 2026-04-20 13:41 | 49.09586 | 10.22062 | 3009 ft | 116 kts | 8° |
| 2026-04-20 13:41 | 49.10352 | 10.22350 | 2996 ft | 115 kts | 8° |
| 2026-04-20 13:41 | 49.11128 | 10.22643 | 3006 ft | 113 kts | 7° |
| 2026-04-20 13:42 | 49.11905 | 10.22929 | 2999 ft | 116 kts | 7° |
| 2026-04-20 13:42 | 49.13475 | 10.23414 | 3000 ft | 116 kts | 6° |
| 2026-04-20 13:42 | 49.14267 | 10.23622 | 3005 ft | 115 kts | 4° |
| 2026-04-20 13:43 | 49.15061 | 10.23811 | 3003 ft | 116 kts | 2° |
| 2026-04-20 13:43 | 49.15852 | 10.23989 | 3003 ft | 115 kts | 2° |
| 2026-04-20 13:43 | 49.16645 | 10.24156 | 3004 ft | 116 kts | 5° |
| 2026-04-20 13:43 | 49.17437 | 10.24316 | 3005 ft | 115 kts | 3° |
| 2026-04-20 13:44 | 49.18241 | 10.24472 | 3007 ft | 117 kts | 2° |
| 2026-04-20 13:44 | 49.19043 | 10.24623 | 3009 ft | 115 kts | 2° |
| 2026-04-20 13:44 | 49.19829 | 10.24768 | 3006 ft | 116 kts | 2° |
| 2026-04-20 13:44 | 49.20623 | 10.24913 | 3008 ft | 113 kts | 2° |
| 2026-04-20 13:45 | 49.21413 | 10.25055 | 3014 ft | 114 kts | 3° |
| 2026-04-20 13:45 | 49.22196 | 10.25191 | 3005 ft | 113 kts | 3° |
| 2026-04-20 13:45 | 49.22995 | 10.25332 | 3008 ft | 116 kts | 2° |
| 2026-04-20 13:45 | 49.23796 | 10.25474 | 3006 ft | 116 kts | 1° |
| 2026-04-20 13:46 | 49.24591 | 10.25614 | 2998 ft | 115 kts | 1° |
| 2026-04-20 13:46 | 49.25378 | 10.25753 | 3006 ft | 111 kts | 1° |
| 2026-04-20 13:46 | 49.26143 | 10.25888 | 3000 ft | 113 kts | 2° |
| 2026-04-20 13:46 | 49.26942 | 10.26031 | 3006 ft | 115 kts | 1° |
| 2026-04-20 13:47 | 49.27729 | 10.26169 | 3006 ft | 117 kts | 2° |
| 2026-04-20 13:47 | 49.28529 | 10.26308 | 3001 ft | 114 kts | 2° |
| 2026-04-20 13:47 | 49.29313 | 10.26445 | 3009 ft | 113 kts | 2° |
| 2026-04-20 13:47 | 49.30102 | 10.26583 | 3006 ft | 115 kts | 2° |
| 2026-04-20 13:48 | 49.30888 | 10.26720 | 3003 ft | 113 kts | 3° |
| 2026-04-20 13:48 | 49.31671 | 10.26859 | 3004 ft | 112 kts | 2° |
| 2026-04-20 13:48 | 49.32441 | 10.26997 | 3005 ft | 113 kts | 3° |
| 2026-04-20 13:48 | 49.33235 | 10.27137 | 3007 ft | 116 kts | 1° |
| 2026-04-20 13:49 | 49.34019 | 10.27272 | 3005 ft | 113 kts | 3° |
| 2026-04-20 13:49 | 49.34809 | 10.27409 | 3018 ft | 111 kts | 1° |
| 2026-04-20 13:49 | 49.35563 | 10.27536 | 3001 ft | 112 kts | 2° |
| 2026-04-20 13:49 | 49.36347 | 10.27674 | 3004 ft | 115 kts | 1° |
| 2026-04-20 13:50 | 49.37135 | 10.27812 | 3005 ft | 115 kts | 3° |
| 2026-04-20 13:50 | 49.37922 | 10.27949 | 3008 ft | 113 kts | 3° |
| 2026-04-20 13:50 | 49.38708 | 10.28087 | 3009 ft | 112 kts | 3° |
| 2026-04-20 13:50 | 49.39494 | 10.28226 | 3008 ft | 115 kts | 1° |
| 2026-04-20 13:51 | 49.40274 | 10.28361 | 3008 ft | 112 kts | 0° |
| 2026-04-20 13:51 | 49.41060 | 10.28497 | 3005 ft | 115 kts | 2° |
| 2026-04-20 13:51 | 49.41840 | 10.28632 | 3003 ft | 112 kts | 2° |
| 2026-04-20 13:51 | 49.42621 | 10.28771 | 3003 ft | 115 kts | 2° |
| 2026-04-20 13:52 | 49.43426 | 10.28914 | 3011 ft | 114 kts | 2° |
| 2026-04-20 13:52 | 49.44202 | 10.29050 | 3009 ft | 115 kts | 2° |
| 2026-04-20 13:52 | 49.44985 | 10.29182 | 3007 ft | 113 kts | 2° |
| 2026-04-20 13:52 | 49.45782 | 10.29322 | 3001 ft | 116 kts | 4° |
| 2026-04-20 13:53 | 49.46565 | 10.29461 | 3009 ft | 112 kts | 2° |
| 2026-04-20 13:53 | 49.47363 | 10.29603 | 3002 ft | 119 kts | 3° |
| 2026-04-20 13:53 | 49.48182 | 10.29750 | 3010 ft | 117 kts | 3° |
| 2026-04-20 13:53 | 49.48970 | 10.29886 | 3004 ft | 113 kts | 4° |
| 2026-04-20 13:54 | 49.49745 | 10.30020 | 3010 ft | 111 kts | 2° |
| 2026-04-20 13:54 | 49.50535 | 10.30160 | 3004 ft | 115 kts | 4° |
| 2026-04-20 13:54 | 49.51335 | 10.30305 | 3011 ft | 115 kts | 2° |
| 2026-04-20 13:54 | 49.52130 | 10.30446 | 3009 ft | 115 kts | 3° |
| 2026-04-20 13:55 | 49.52926 | 10.30586 | 3009 ft | 116 kts | 2° |
| 2026-04-20 13:55 | 49.53709 | 10.30722 | 3008 ft | 115 kts | 2° |
| 2026-04-20 13:55 | 49.54497 | 10.30859 | 3018 ft | 110 kts | 2° |
| 2026-04-20 13:55 | 49.55262 | 10.30989 | 3002 ft | 112 kts | 3° |
| 2026-04-20 13:56 | 49.56051 | 10.31131 | 3009 ft | 114 kts | 3° |
| 2026-04-20 13:56 | 49.56819 | 10.31268 | 2993 ft | 115 kts | 4° |
| 2026-04-20 13:56 | 49.57627 | 10.31415 | 2999 ft | 115 kts | 3° |
| 2026-04-20 13:56 | 49.58393 | 10.31550 | 3001 ft | 110 kts | 3° |
| 2026-04-20 13:57 | 49.59186 | 10.31691 | 3000 ft | 114 kts | 2° |
| 2026-04-20 13:57 | 49.59967 | 10.31828 | 3004 ft | 112 kts | 2° |
| 2026-04-20 13:57 | 49.60751 | 10.31966 | 2999 ft | 114 kts | 3° |
| 2026-04-20 13:57 | 49.61531 | 10.32105 | 3002 ft | 115 kts | 3° |
| 2026-04-20 13:58 | 49.62325 | 10.32246 | 2999 ft | 116 kts | 3° |
| 2026-04-20 13:58 | 49.63130 | 10.32387 | 3006 ft | 115 kts | 2° |
| 2026-04-20 13:58 | 49.63932 | 10.32528 | 3001 ft | 117 kts | 2° |
| 2026-04-20 13:58 | 49.64726 | 10.32667 | 3004 ft | 112 kts | 2° |
| 2026-04-20 13:59 | 49.65510 | 10.32805 | 3002 ft | 115 kts | 2° |
| 2026-04-20 13:59 | 49.66030 | 10.32897 | 3006 ft | 112 kts | 2° |
| 2026-04-20 13:59 | 49.66818 | 10.33035 | 2999 ft | 117 kts | 3° |
| 2026-04-20 13:59 | 49.67628 | 10.33180 | 3006 ft | 116 kts | 2° |
| 2026-04-20 14:00 | 49.68431 | 10.33322 | 3001 ft | 117 kts | 2° |
| 2026-04-20 14:00 | 49.69225 | 10.33463 | 3006 ft | 112 kts | 2° |
| 2026-04-20 14:00 | 49.70002 | 10.33603 | 3003 ft | 116 kts | 2° |
| 2026-04-20 14:00 | 49.70809 | 10.33747 | 3012 ft | 115 kts | 2° |
| 2026-04-20 14:01 | 49.71609 | 10.33887 | 3004 ft | 118 kts | 3° |
| 2026-04-20 14:01 | 49.72419 | 10.34031 | 3010 ft | 115 kts | 2° |
| 2026-04-20 14:01 | 49.73201 | 10.34169 | 3002 ft | 113 kts | 2° |
| 2026-04-20 14:01 | 49.73979 | 10.34307 | 3010 ft | 111 kts | 1° |
| 2026-04-20 14:02 | 49.74746 | 10.34443 | 3003 ft | 112 kts | 2° |
| 2026-04-20 14:02 | 49.75536 | 10.34587 | 3005 ft | 116 kts | 2° |
| 2026-04-20 14:02 | 49.76329 | 10.34728 | 3008 ft | 114 kts | 2° |
| 2026-04-20 14:02 | 49.77127 | 10.34870 | 3011 ft | 115 kts | 2° |
| 2026-04-20 14:03 | 49.77894 | 10.35005 | 3010 ft | 111 kts | 1° |
| 2026-04-20 14:03 | 49.78674 | 10.35143 | 3013 ft | 112 kts | 1° |
| 2026-04-20 14:03 | 49.79443 | 10.35279 | 3004 ft | 112 kts | 1° |
| 2026-04-20 14:03 | 49.80232 | 10.35422 | 3008 ft | 115 kts | 2° |
| 2026-04-20 14:04 | 49.81016 | 10.35562 | 3007 ft | 115 kts | 1° |
| 2026-04-20 14:04 | 49.81812 | 10.35703 | 3013 ft | 113 kts | 1° |
| 2026-04-20 14:04 | 49.82590 | 10.35840 | 3007 ft | 113 kts | 2° |
| 2026-04-20 14:04 | 49.83378 | 10.35983 | 3010 ft | 114 kts | 2° |
| 2026-04-20 14:05 | 49.84146 | 10.36120 | 3013 ft | 110 kts | 2° |
| 2026-04-20 14:05 | 49.84907 | 10.36257 | 3010 ft | 113 kts | 2° |
| 2026-04-20 14:05 | 49.85690 | 10.36397 | 3009 ft | 113 kts | 3° |
| 2026-04-20 14:05 | 49.86481 | 10.36541 | 3010 ft | 114 kts | 3° |
| 2026-04-20 14:06 | 49.87258 | 10.36681 | 3009 ft | 110 kts | 2° |
| 2026-04-20 14:06 | 49.88018 | 10.36817 | 3006 ft | 111 kts | 1° |
| 2026-04-20 14:06 | 49.88778 | 10.36952 | 3009 ft | 109 kts | 2° |
| 2026-04-20 14:06 | 49.89537 | 10.37087 | 3004 ft | 112 kts | 2° |
| 2026-04-20 14:07 | 49.90321 | 10.37229 | 3012 ft | 114 kts | 2° |
| 2026-04-20 14:07 | 49.91103 | 10.37368 | 3008 ft | 114 kts | 2° |
| 2026-04-20 14:07 | 49.91890 | 10.37508 | 3011 ft | 112 kts | 2° |
| 2026-04-20 14:07 | 49.92664 | 10.37647 | 3007 ft | 112 kts | 3° |
| 2026-04-20 14:08 | 49.93439 | 10.37787 | 3008 ft | 112 kts | 2° |
| 2026-04-20 14:08 | 49.94215 | 10.37927 | 3008 ft | 112 kts | 3° |
| 2026-04-20 14:08 | 49.94991 | 10.38066 | 3010 ft | 112 kts | 2° |
| 2026-04-20 14:08 | 49.95760 | 10.38203 | 3013 ft | 112 kts | 2° |
| 2026-04-20 14:09 | 49.96517 | 10.38336 | 3003 ft | 110 kts | 2° |
| 2026-04-20 14:09 | 49.97281 | 10.38471 | 3008 ft | 109 kts | 2° |
| 2026-04-20 14:09 | 49.98046 | 10.38608 | 3013 ft | 110 kts | 1° |
| 2026-04-20 14:09 | 49.98796 | 10.38740 | 3003 ft | 109 kts | 2° |
| 2026-04-20 14:10 | 49.99563 | 10.38880 | 3007 ft | 112 kts | 2° |
| 2026-04-20 14:10 | 50.00323 | 10.39017 | 3002 ft | 111 kts | 2° |
| 2026-04-20 14:10 | 50.01100 | 10.39159 | 3010 ft | 112 kts | 2° |
| 2026-04-20 14:10 | 50.01874 | 10.39298 | 3010 ft | 111 kts | 1° |
| 2026-04-20 14:11 | 50.02655 | 10.39439 | 3011 ft | 114 kts | 1° |
| 2026-04-20 14:11 | 50.03431 | 10.39578 | 3012 ft | 109 kts | 1° |
| 2026-04-20 14:11 | 50.04184 | 10.39715 | 3005 ft | 111 kts | 2° |
| 2026-04-20 14:11 | 50.04949 | 10.39856 | 3009 ft | 111 kts | 1° |
| 2026-04-20 14:12 | 50.05709 | 10.39994 | 3010 ft | 112 kts | 2° |
| 2026-04-20 14:12 | 50.06487 | 10.40131 | 3011 ft | 111 kts | 1° |
| 2026-04-20 14:12 | 50.07256 | 10.40267 | 3008 ft | 114 kts | 2° |
| 2026-04-20 14:12 | 50.08026 | 10.40403 | 3009 ft | 108 kts | 1° |
| 2026-04-20 14:13 | 50.08781 | 10.40540 | 3006 ft | 110 kts | 2° |
| 2026-04-20 14:13 | 50.09553 | 10.40682 | 3010 ft | 110 kts | 1° |
| 2026-04-20 14:13 | 50.10316 | 10.40821 | 3007 ft | 111 kts | 2° |
| 2026-04-20 14:13 | 50.11100 | 10.40964 | 3008 ft | 115 kts | 1° |
| 2026-04-20 14:14 | 50.11882 | 10.41105 | 3004 ft | 113 kts | 4° |
| 2026-04-20 14:14 | 50.12667 | 10.41248 | 3008 ft | 113 kts | 2° |
| 2026-04-20 14:14 | 50.13439 | 10.41388 | 3006 ft | 111 kts | 3° |
| 2026-04-20 14:14 | 50.14200 | 10.41527 | 3015 ft | 110 kts | 2° |
| 2026-04-20 14:15 | 50.14955 | 10.41659 | 3011 ft | 110 kts | 1° |
| 2026-04-20 14:15 | 50.15716 | 10.41790 | 3011 ft | 110 kts | 2° |
| 2026-04-20 14:15 | 50.16467 | 10.41920 | 3014 ft | 109 kts | 1° |
| 2026-04-20 14:15 | 50.17227 | 10.42049 | 3009 ft | 110 kts | 1° |
| 2026-04-20 14:16 | 50.17988 | 10.42182 | 3004 ft | 110 kts | 2° |
| 2026-04-20 14:16 | 50.18746 | 10.42319 | 3012 ft | 110 kts | 0° |
| 2026-04-20 14:16 | 50.19495 | 10.42451 | 3008 ft | 107 kts | 2° |
| 2026-04-20 14:16 | 50.20248 | 10.42586 | 3004 ft | 110 kts | 2° |
| 2026-04-20 14:17 | 50.20955 | 10.42718 | 3000 ft | 110 kts | 2° |
| 2026-04-20 14:17 | 50.21750 | 10.42871 | 3004 ft | 111 kts | 2° |
| 2026-04-20 14:17 | 50.22502 | 10.43012 | 3006 ft | 108 kts | 2° |
| 2026-04-20 14:17 | 50.23255 | 10.43152 | 3008 ft | 110 kts | 1° |
| 2026-04-20 14:18 | 50.24026 | 10.43297 | 3012 ft | 112 kts | 1° |
| 2026-04-20 14:18 | 50.24791 | 10.43435 | 3017 ft | 109 kts | 1° |
| 2026-04-20 14:18 | 50.25544 | 10.43566 | 3008 ft | 110 kts | 1° |
| 2026-04-20 14:18 | 50.26311 | 10.43702 | 3012 ft | 111 kts | 1° |
| 2026-04-20 14:19 | 50.27074 | 10.43839 | 3011 ft | 109 kts | 1° |
| 2026-04-20 14:19 | 50.27821 | 10.43976 | 3005 ft | 108 kts | 2° |
| 2026-04-20 14:19 | 50.28572 | 10.44116 | 3011 ft | 109 kts | 1° |
| 2026-04-20 14:19 | 50.29321 | 10.44252 | 3011 ft | 108 kts | 1° |
| 2026-04-20 14:20 | 50.30071 | 10.44387 | 3012 ft | 109 kts | 1° |
| 2026-04-20 14:20 | 50.30827 | 10.44525 | 3009 ft | 110 kts | 1° |
| 2026-04-20 14:20 | 50.31574 | 10.44663 | 3013 ft | 109 kts | 1° |
| 2026-04-20 14:20 | 50.32331 | 10.44803 | 3012 ft | 109 kts | 1° |
| 2026-04-20 14:21 | 50.33085 | 10.44944 | 3011 ft | 109 kts | 1° |
| 2026-04-20 14:21 | 50.33839 | 10.45083 | 3009 ft | 109 kts | 1° |
| 2026-04-20 14:21 | 50.34596 | 10.45223 | 3016 ft | 109 kts | 1° |
| 2026-04-20 14:21 | 50.35343 | 10.45356 | 3011 ft | 108 kts | 1° |
| 2026-04-20 14:22 | 50.36092 | 10.45491 | 3014 ft | 108 kts | 1° |
| 2026-04-20 14:22 | 50.36837 | 10.45626 | 3012 ft | 108 kts | 1° |
| 2026-04-20 14:22 | 50.37579 | 10.45763 | 3013 ft | 107 kts | 1° |
| 2026-04-20 14:22 | 50.38326 | 10.45900 | 3010 ft | 110 kts | 1° |
| 2026-04-20 14:23 | 50.39084 | 10.46041 | 3011 ft | 110 kts | 1° |
| 2026-04-20 14:23 | 50.39840 | 10.46180 | 3011 ft | 109 kts | 2° |
| 2026-04-20 14:23 | 50.40590 | 10.46318 | 3008 ft | 109 kts | 2° |
| 2026-04-20 14:23 | 50.41340 | 10.46455 | 3016 ft | 107 kts | 0° |
| 2026-04-20 14:24 | 50.42081 | 10.46589 | 3013 ft | 108 kts | 0° |
| 2026-04-20 14:24 | 50.42823 | 10.46725 | 3014 ft | 107 kts | 0° |
| 2026-04-20 14:24 | 50.43549 | 10.46856 | 3009 ft | 107 kts | 0° |
| 2026-04-20 14:24 | 50.44295 | 10.46993 | 3011 ft | 108 kts | 0° |
| 2026-04-20 14:25 | 50.45039 | 10.47131 | 3012 ft | 107 kts | 0° |
| 2026-04-20 14:25 | 50.45776 | 10.47266 | 3013 ft | 107 kts | 0° |
| 2026-04-20 14:25 | 50.46516 | 10.47397 | 3010 ft | 107 kts | 359° |
| 2026-04-20 14:25 | 50.47259 | 10.47367 | 3012 ft | 107 kts | 351° |
| 2026-04-20 14:26 | 50.47997 | 10.47271 | 3013 ft | 106 kts | 351° |
| 2026-04-20 14:26 | 50.48727 | 10.47167 | 3004 ft | 106 kts | 351° |
| 2026-04-20 14:26 | 50.49449 | 10.47059 | 3017 ft | 104 kts | 350° |
| 2026-04-20 14:26 | 50.50177 | 10.46947 | 3015 ft | 105 kts | 350° |
| 2026-04-20 14:27 | 50.50904 | 10.46835 | 3017 ft | 103 kts | 350° |
| 2026-04-20 14:27 | 50.51614 | 10.46728 | 3011 ft | 103 kts | 350° |
| 2026-04-20 14:27 | 50.52327 | 10.46615 | 3024 ft | 102 kts | 349° |
| 2026-04-20 14:27 | 50.53034 | 10.46499 | 3009 ft | 106 kts | 349° |
| 2026-04-20 14:28 | 50.53782 | 10.46384 | 3011 ft | 106 kts | 350° |
| 2026-04-20 14:28 | 50.54513 | 10.46278 | 3000 ft | 107 kts | 350° |
| 2026-04-20 14:28 | 50.55234 | 10.46171 | 3002 ft | 106 kts | 350° |
| 2026-04-20 14:28 | 50.55962 | 10.46064 | 3014 ft | 104 kts | 349° |
| 2026-04-20 14:29 | 50.56692 | 10.45951 | 3015 ft | 106 kts | 349° |
| 2026-04-20 14:29 | 50.57433 | 10.45832 | 3018 ft | 107 kts | 349° |
| 2026-04-20 14:29 | 50.58169 | 10.45713 | 3017 ft | 105 kts | 349° |
| 2026-04-20 14:29 | 50.58886 | 10.45597 | 3008 ft | 104 kts | 349° |
| 2026-04-20 14:30 | 50.59605 | 10.45484 | 3020 ft | 103 kts | 349° |
| 2026-04-20 14:30 | 50.60318 | 10.45369 | 3016 ft | 103 kts | 349° |
| 2026-04-20 14:30 | 50.61029 | 10.45259 | 3017 ft | 103 kts | 350° |
| 2026-04-20 14:30 | 50.61742 | 10.45147 | 3024 ft | 103 kts | 349° |
| 2026-04-20 14:31 | 50.62453 | 10.45030 | 3022 ft | 103 kts | 350° |
| 2026-04-20 14:31 | 50.63164 | 10.44914 | 3017 ft | 103 kts | 350° |
| 2026-04-20 14:31 | 50.63889 | 10.44800 | 3015 ft | 106 kts | 349° |
| 2026-04-20 14:31 | 50.64623 | 10.44683 | 3021 ft | 105 kts | 349° |
| 2026-04-20 14:32 | 50.65352 | 10.44566 | 3020 ft | 105 kts | 349° |
| 2026-04-20 14:32 | 50.66072 | 10.44451 | 3020 ft | 103 kts | 349° |
| 2026-04-20 14:32 | 50.66794 | 10.44338 | 3016 ft | 105 kts | 349° |
| 2026-04-20 14:32 | 50.67511 | 10.44227 | 3015 ft | 105 kts | 349° |
| 2026-04-20 14:33 | 50.68239 | 10.44116 | 3017 ft | 105 kts | 350° |
| 2026-04-20 14:33 | 50.68954 | 10.44003 | 3013 ft | 103 kts | 350° |
| 2026-04-20 14:33 | 50.69670 | 10.43892 | 3021 ft | 104 kts | 349° |
| 2026-04-20 14:33 | 50.70400 | 10.43778 | 3017 ft | 106 kts | 349° |
| 2026-04-20 14:34 | 50.71126 | 10.43662 | 3014 ft | 104 kts | 350° |
| 2026-04-20 14:34 | 50.71842 | 10.43545 | 3017 ft | 103 kts | 349° |
| 2026-04-20 14:34 | 50.72558 | 10.43429 | 3011 ft | 104 kts | 350° |
| 2026-04-20 14:34 | 50.73279 | 10.43316 | 3012 ft | 104 kts | 350° |
| 2026-04-20 14:35 | 50.74006 | 10.43201 | 3013 ft | 105 kts | 351° |
| 2026-04-20 14:35 | 50.74739 | 10.43084 | 3017 ft | 105 kts | 350° |
| 2026-04-20 14:35 | 50.75457 | 10.42968 | 3016 ft | 103 kts | 351° |
| 2026-04-20 14:35 | 50.76172 | 10.42853 | 3020 ft | 103 kts | 350° |
| 2026-04-20 14:36 | 50.76891 | 10.42736 | 3021 ft | 103 kts | 351° |
| 2026-04-20 14:36 | 50.77610 | 10.42621 | 3019 ft | 105 kts | 351° |
| 2026-04-20 14:36 | 50.78332 | 10.42503 | 3007 ft | 106 kts | 351° |
| 2026-04-20 14:36 | 50.79060 | 10.42389 | 3014 ft | 105 kts | 350° |
| 2026-04-20 14:37 | 50.79784 | 10.42275 | 3013 ft | 103 kts | 350° |
| 2026-04-20 14:37 | 50.80502 | 10.42165 | 3014 ft | 104 kts | 350° |
| 2026-04-20 14:37 | 50.81226 | 10.42056 | 3017 ft | 105 kts | 350° |
| 2026-04-20 14:37 | 50.81956 | 10.41945 | 3021 ft | 106 kts | 349° |
| 2026-04-20 14:38 | 50.82683 | 10.41826 | 3016 ft | 105 kts | 349° |
| 2026-04-20 14:38 | 50.83411 | 10.41706 | 3008 ft | 106 kts | 350° |
| 2026-04-20 14:38 | 50.84145 | 10.41593 | 3013 ft | 105 kts | 351° |
| 2026-04-20 14:38 | 50.84877 | 10.41482 | 3014 ft | 106 kts | 352° |
| 2026-04-20 14:39 | 50.85612 | 10.41366 | 3021 ft | 106 kts | 350° |
| 2026-04-20 14:39 | 50.86347 | 10.41250 | 3012 ft | 107 kts | 352° |
| 2026-04-20 14:39 | 50.87077 | 10.41138 | 3027 ft | 103 kts | 349° |
| 2026-04-20 14:39 | 50.87803 | 10.41020 | 3020 ft | 105 kts | 348° |
| 2026-04-20 14:40 | 50.88543 | 10.40900 | 3022 ft | 108 kts | 349° |
| 2026-04-20 14:40 | 50.89291 | 10.40772 | 3011 ft | 108 kts | 348° |
| 2026-04-20 14:40 | 50.90050 | 10.40650 | 3022 ft | 108 kts | 348° |
| 2026-04-20 14:40 | 50.90798 | 10.40528 | 3012 ft | 110 kts | 349° |
| 2026-04-20 14:41 | 50.91552 | 10.40405 | 3019 ft | 107 kts | 349° |
| 2026-04-20 14:41 | 50.92293 | 10.40287 | 3009 ft | 109 kts | 351° |
| 2026-04-20 14:41 | 50.93039 | 10.40169 | 3020 ft | 105 kts | 351° |
| 2026-04-20 14:41 | 50.93762 | 10.40052 | 3016 ft | 105 kts | 351° |
| 2026-04-20 14:42 | 50.94488 | 10.39936 | 3021 ft | 105 kts | 351° |
| 2026-04-20 14:42 | 50.95212 | 10.39817 | 3021 ft | 105 kts | 351° |
| 2026-04-20 14:42 | 50.95942 | 10.39698 | 3019 ft | 105 kts | 351° |
| 2026-04-20 14:42 | 50.96673 | 10.39582 | 3027 ft | 106 kts | 351° |
| 2026-04-20 14:43 | 50.97401 | 10.39463 | 3019 ft | 106 kts | 351° |
| 2026-04-20 14:43 | 50.97890 | 10.39384 | 3019 ft | 107 kts | 351° |
| 2026-04-20 14:43 | 50.98632 | 10.39264 | 3020 ft | 107 kts | 351° |
| 2026-04-20 14:43 | 50.99376 | 10.39145 | 3018 ft | 108 kts | 351° |
| 2026-04-20 14:44 | 51.00115 | 10.39024 | 3018 ft | 105 kts | 352° |
| 2026-04-20 14:44 | 51.00851 | 10.38906 | 3012 ft | 107 kts | 351° |
| 2026-04-20 14:44 | 51.01594 | 10.38791 | 3014 ft | 107 kts | 351° |
| 2026-04-20 14:44 | 51.02333 | 10.38675 | 3017 ft | 106 kts | 351° |
| 2026-04-20 14:45 | 51.03067 | 10.38560 | 3014 ft | 106 kts | 351° |
| 2026-04-20 14:45 | 51.03804 | 10.38444 | 3018 ft | 106 kts | 351° |
| 2026-04-20 14:45 | 51.04540 | 10.38327 | 3016 ft | 106 kts | 351° |
| 2026-04-20 14:45 | 51.05279 | 10.38209 | 3018 ft | 107 kts | 351° |
| 2026-04-20 14:46 | 51.06017 | 10.38092 | 3018 ft | 107 kts | 352° |
| 2026-04-20 14:46 | 51.06751 | 10.37974 | 3024 ft | 106 kts | 351° |
| 2026-04-20 14:46 | 51.07495 | 10.37858 | 3021 ft | 107 kts | 351° |
| 2026-04-20 14:46 | 51.08225 | 10.37742 | 3024 ft | 106 kts | 351° |
| 2026-04-20 14:47 | 51.08952 | 10.37623 | 3023 ft | 105 kts | 351° |
| 2026-04-20 14:47 | 51.09682 | 10.37507 | 3020 ft | 105 kts | 351° |
| 2026-04-20 14:47 | 51.10408 | 10.37393 | 3028 ft | 106 kts | 351° |
| 2026-04-20 14:48 | 51.11881 | 10.37158 | 3030 ft | 107 kts | 351° |
| 2026-04-20 14:48 | 51.12620 | 10.37038 | 3027 ft | 106 kts | 351° |
| 2026-04-20 14:48 | 51.13358 | 10.36916 | 3026 ft | 107 kts | 351° |
| 2026-04-20 14:48 | 51.14098 | 10.36796 | 3022 ft | 107 kts | 351° |
| 2026-04-20 14:49 | 51.14834 | 10.36679 | 3020 ft | 106 kts | 352° |
| 2026-04-20 14:49 | 51.15563 | 10.36564 | 3025 ft | 106 kts | 352° |
| 2026-04-20 14:49 | 51.16295 | 10.36446 | 3029 ft | 106 kts | 352° |
| 2026-04-20 14:49 | 51.17025 | 10.36328 | 3031 ft | 106 kts | 351° |
| 2026-04-20 14:50 | 51.17756 | 10.36208 | 3018 ft | 106 kts | 351° |
| 2026-04-20 14:50 | 51.18499 | 10.36090 | 3026 ft | 108 kts | 351° |
| 2026-04-20 14:50 | 51.19244 | 10.35971 | 3028 ft | 107 kts | 351° |
| 2026-04-20 14:50 | 51.19986 | 10.35851 | 3026 ft | 107 kts | 351° |
| 2026-04-20 14:51 | 51.20729 | 10.35731 | 3025 ft | 107 kts | 351° |
| 2026-04-20 14:51 | 51.21408 | 10.35619 | 3028 ft | 107 kts | 351° |
| 2026-04-20 14:51 | 51.22146 | 10.35496 | 3032 ft | 105 kts | 352° |
| 2026-04-20 14:51 | 51.22877 | 10.35376 | 3014 ft | 109 kts | 352° |
| 2026-04-20 14:52 | 51.23633 | 10.35253 | 3026 ft | 110 kts | 352° |
| 2026-04-20 14:52 | 51.24392 | 10.35130 | 3027 ft | 112 kts | 352° |
| 2026-04-20 14:52 | 51.25172 | 10.34994 | 3029 ft | 110 kts | 351° |
| 2026-04-20 14:52 | 51.25935 | 10.34852 | 3031 ft | 110 kts | 352° |
| 2026-04-20 14:53 | 51.26702 | 10.34710 | 3031 ft | 111 kts | 351° |
| 2026-04-20 14:53 | 51.27471 | 10.34566 | 3033 ft | 111 kts | 350° |
| 2026-04-20 14:53 | 51.28240 | 10.34421 | 3039 ft | 111 kts | 350° |
| 2026-04-20 14:53 | 51.29001 | 10.34275 | 3042 ft | 109 kts | 350° |
| 2026-04-20 14:54 | 51.29754 | 10.34130 | 3038 ft | 109 kts | 350° |
| 2026-04-20 14:54 | 51.30498 | 10.33990 | 3036 ft | 110 kts | 350° |
| 2026-04-20 14:54 | 51.31268 | 10.33846 | 3036 ft | 110 kts | 351° |
| 2026-04-20 14:54 | 51.32026 | 10.33705 | 3037 ft | 109 kts | 351° |
| 2026-04-20 14:55 | 51.32789 | 10.33565 | 3037 ft | 114 kts | 352° |
| 2026-04-20 14:55 | 51.33570 | 10.33419 | 3042 ft | 114 kts | 351° |
| 2026-04-20 14:55 | 51.34369 | 10.33267 | 3038 ft | 114 kts | 350° |
| 2026-04-20 14:55 | 51.35148 | 10.33117 | 3039 ft | 114 kts | 350° |
| 2026-04-20 14:56 | 51.35928 | 10.32967 | 3042 ft | 113 kts | 353° |
| 2026-04-20 14:56 | 51.36713 | 10.32817 | 3038 ft | 114 kts | 352° |
| 2026-04-20 14:56 | 51.37494 | 10.32668 | 3037 ft | 113 kts | 353° |
| 2026-04-20 14:56 | 51.38286 | 10.32520 | 3041 ft | 114 kts | 353° |
| 2026-04-20 14:57 | 51.39072 | 10.32372 | 3044 ft | 113 kts | 352° |
| 2026-04-20 14:57 | 51.39847 | 10.32224 | 3039 ft | 112 kts | 352° |
| 2026-04-20 14:57 | 51.40624 | 10.32078 | 3043 ft | 111 kts | 353° |
| 2026-04-20 14:57 | 51.41390 | 10.31932 | 3037 ft | 112 kts | 353° |
| 2026-04-20 14:58 | 51.42167 | 10.31787 | 3039 ft | 113 kts | 353° |
| 2026-04-20 14:58 | 51.42941 | 10.31640 | 3042 ft | 111 kts | 352° |
| 2026-04-20 14:58 | 51.43711 | 10.31493 | 3044 ft | 112 kts | 352° |
| 2026-04-20 14:58 | 51.44482 | 10.31346 | 3039 ft | 113 kts | 352° |
| 2026-04-20 14:59 | 51.45256 | 10.31196 | 3043 ft | 112 kts | 352° |
| 2026-04-20 14:59 | 51.46044 | 10.31045 | 3045 ft | 113 kts | 352° |
| 2026-04-20 14:59 | 51.46809 | 10.30899 | 3046 ft | 112 kts | 352° |
| 2026-04-20 14:59 | 51.47575 | 10.30753 | 3047 ft | 111 kts | 353° |
| 2026-04-20 15:00 | 51.48347 | 10.30606 | 3047 ft | 112 kts | 353° |
| 2026-04-20 15:00 | 51.49125 | 10.30457 | 3047 ft | 114 kts | 352° |
| 2026-04-20 15:00 | 51.49924 | 10.30305 | 3050 ft | 116 kts | 352° |
| 2026-04-20 15:00 | 51.50727 | 10.30148 | 3049 ft | 117 kts | 352° |
| 2026-04-20 15:01 | 51.51537 | 10.29990 | 3051 ft | 116 kts | 353° |
| 2026-04-20 15:01 | 51.52341 | 10.29834 | 3047 ft | 117 kts | 352° |
| 2026-04-20 15:01 | 51.53145 | 10.29677 | 3043 ft | 118 kts | 352° |
| 2026-04-20 15:01 | 51.53951 | 10.29521 | 3047 ft | 115 kts | 353° |
| 2026-04-20 15:02 | 51.54754 | 10.29368 | 3055 ft | 115 kts | 353° |
| 2026-04-20 15:02 | 51.55552 | 10.29216 | 3050 ft | 115 kts | 353° |
| 2026-04-20 15:02 | 51.56336 | 10.29067 | 3034 ft | 116 kts | 353° |
| 2026-04-20 15:02 | 51.57140 | 10.28916 | 3049 ft | 115 kts | 352° |
| 2026-04-20 15:03 | 51.57926 | 10.28765 | 3049 ft | 113 kts | 353° |
| 2026-04-20 15:03 | 51.58713 | 10.28615 | 3051 ft | 114 kts | 353° |
| 2026-04-20 15:03 | 51.59489 | 10.28467 | 3053 ft | 113 kts | 353° |
| 2026-04-20 15:03 | 51.60274 | 10.28318 | 3050 ft | 116 kts | 356° |
| 2026-04-20 15:04 | 51.61078 | 10.28166 | 3047 ft | 117 kts | 355° |
| 2026-04-20 15:04 | 51.61888 | 10.28011 | 3047 ft | 117 kts | 355° |
| 2026-04-20 15:04 | 51.62698 | 10.27854 | 3056 ft | 117 kts | 355° |
| 2026-04-20 15:04 | 51.63503 | 10.27698 | 3055 ft | 116 kts | 355° |
| 2026-04-20 15:05 | 51.64302 | 10.27544 | 3052 ft | 116 kts | 355° |
| 2026-04-20 15:05 | 51.65108 | 10.27389 | 3060 ft | 116 kts | 356° |
| 2026-04-20 15:05 | 51.65913 | 10.27235 | 3056 ft | 118 kts | 356° |
| 2026-04-20 15:05 | 51.66730 | 10.27078 | 3058 ft | 117 kts | 355° |
| 2026-04-20 15:06 | 51.67530 | 10.26923 | 3056 ft | 117 kts | 355° |
| 2026-04-20 15:06 | 51.68338 | 10.26767 | 3058 ft | 116 kts | 355° |
| 2026-04-20 15:06 | 51.69138 | 10.26612 | 3057 ft | 115 kts | 356° |
| 2026-04-20 15:06 | 51.69936 | 10.26458 | 3057 ft | 117 kts | 355° |
| 2026-04-20 15:07 | 51.70747 | 10.26303 | 3058 ft | 117 kts | 355° |
| 2026-04-20 15:07 | 51.71561 | 10.26146 | 3055 ft | 119 kts | 355° |
| 2026-04-20 15:07 | 51.72384 | 10.25988 | 3055 ft | 119 kts | 355° |
| 2026-04-20 15:07 | 51.73200 | 10.25831 | 3059 ft | 117 kts | 355° |
| 2026-04-20 15:08 | 51.74010 | 10.25674 | 3060 ft | 116 kts | 356° |
| 2026-04-20 15:08 | 51.74811 | 10.25520 | 3060 ft | 115 kts | 356° |
| 2026-04-20 15:08 | 51.75606 | 10.25366 | 3054 ft | 117 kts | 354° |
| 2026-04-20 15:08 | 51.76416 | 10.25208 | 3059 ft | 117 kts | 354° |
| 2026-04-20 15:09 | 51.77223 | 10.25050 | 3064 ft | 117 kts | 355° |
| 2026-04-20 15:09 | 51.78058 | 10.24885 | 3057 ft | 123 kts | 354° |
| 2026-04-20 15:09 | 51.78899 | 10.24720 | 3055 ft | 122 kts | 355° |
| 2026-04-20 15:09 | 51.79732 | 10.24557 | 3044 ft | 121 kts | 355° |
| 2026-04-20 15:10 | 51.80567 | 10.24396 | 3067 ft | 117 kts | 356° |
| 2026-04-20 15:10 | 51.81383 | 10.24238 | 3040 ft | 120 kts | 356° |
| 2026-04-20 15:10 | 51.82208 | 10.24087 | 3049 ft | 118 kts | 356° |
| 2026-04-20 15:10 | 51.82997 | 10.23934 | 3059 ft | 112 kts | 354° |
| 2026-04-20 15:11 | 51.83784 | 10.23780 | 3058 ft | 116 kts | 355° |
| 2026-04-20 15:11 | 51.84596 | 10.23631 | 3042 ft | 118 kts | 357° |
| 2026-04-20 15:11 | 51.85391 | 10.23478 | 3070 ft | 111 kts | 358° |
| 2026-04-20 15:11 | 51.86165 | 10.23324 | 3048 ft | 114 kts | 358° |
| 2026-04-20 15:12 | 51.86981 | 10.23175 | 3051 ft | 118 kts | 358° |
| 2026-04-20 15:12 | 51.87767 | 10.23015 | 3064 ft | 111 kts | 359° |
| 2026-04-20 15:12 | 51.88545 | 10.22863 | 3054 ft | 117 kts | 358° |
| 2026-04-20 15:12 | 51.89362 | 10.22707 | 3060 ft | 116 kts | 358° |
| 2026-04-20 15:13 | 51.90164 | 10.22552 | 3062 ft | 115 kts | 358° |
| 2026-04-20 15:13 | 51.90958 | 10.22399 | 3054 ft | 115 kts | 358° |
| 2026-04-20 15:13 | 51.91750 | 10.22250 | 3062 ft | 112 kts | 359° |
| 2026-04-20 15:13 | 51.92516 | 10.22098 | 3052 ft | 112 kts | 359° |
| 2026-04-20 15:14 | 51.93315 | 10.21950 | 3049 ft | 117 kts | 358° |
| 2026-04-20 15:14 | 51.94080 | 10.21806 | 3054 ft | 118 kts | 358° |
| 2026-04-20 15:14 | 51.94902 | 10.21648 | 3053 ft | 119 kts | 358° |
| 2026-04-20 15:14 | 51.95722 | 10.21490 | 3055 ft | 119 kts | 358° |
| 2026-04-20 15:15 | 51.96553 | 10.21329 | 3055 ft | 120 kts | 358° |
| 2026-04-20 15:15 | 51.97368 | 10.21171 | 3058 ft | 119 kts | 358° |
| 2026-04-20 15:15 | 51.98196 | 10.21011 | 3057 ft | 120 kts | 358° |
| 2026-04-20 15:15 | 51.99033 | 10.20849 | 3057 ft | 121 kts | 358° |
| 2026-04-20 15:16 | 51.99871 | 10.20686 | 3057 ft | 121 kts | 358° |
| 2026-04-20 15:16 | 52.00705 | 10.20524 | 3058 ft | 119 kts | 359° |
| 2026-04-20 15:16 | 52.01523 | 10.20364 | 3057 ft | 118 kts | 359° |
| 2026-04-20 15:16 | 52.02336 | 10.20208 | 3058 ft | 117 kts | 358° |
| 2026-04-20 15:17 | 52.03150 | 10.20051 | 3057 ft | 118 kts | 358° |
| 2026-04-20 15:17 | 52.03974 | 10.19893 | 3057 ft | 120 kts | 358° |
| 2026-04-20 15:17 | 52.04799 | 10.19733 | 3059 ft | 119 kts | 358° |
| 2026-04-20 15:17 | 52.05626 | 10.19574 | 3057 ft | 119 kts | 358° |
| 2026-04-20 15:18 | 52.06450 | 10.19415 | 3056 ft | 120 kts | 358° |
| 2026-04-20 15:18 | 52.07287 | 10.19254 | 3056 ft | 120 kts | 358° |
| 2026-04-20 15:18 | 52.08111 | 10.19093 | 3057 ft | 119 kts | 358° |
| 2026-04-20 15:18 | 52.08930 | 10.18935 | 3057 ft | 119 kts | 1° |
| 2026-04-20 15:19 | 52.09743 | 10.18778 | 3056 ft | 119 kts | 1° |
| 2026-04-20 15:19 | 52.10565 | 10.18619 | 3056 ft | 119 kts | 1° |
| 2026-04-20 15:19 | 52.11381 | 10.18461 | 3057 ft | 118 kts | 1° |
| 2026-04-20 15:19 | 52.12198 | 10.18305 | 3057 ft | 119 kts | 1° |
| 2026-04-20 15:20 | 52.13023 | 10.18147 | 3057 ft | 119 kts | 1° |
| 2026-04-20 15:20 | 52.13841 | 10.17989 | 3054 ft | 119 kts | 1° |
| 2026-04-20 15:20 | 52.14673 | 10.17830 | 3055 ft | 121 kts | 1° |
| 2026-04-20 15:20 | 52.15512 | 10.17667 | 3055 ft | 121 kts | 1° |
| 2026-04-20 15:21 | 52.16345 | 10.17504 | 3055 ft | 120 kts | 1° |
| 2026-04-20 15:21 | 52.17167 | 10.17344 | 3054 ft | 120 kts | 1° |
| 2026-04-20 15:21 | 52.17998 | 10.17185 | 3054 ft | 120 kts | 1° |
| 2026-04-20 15:21 | 52.18828 | 10.17043 | 3055 ft | 119 kts | 2° |
| 2026-04-20 15:22 | 52.19647 | 10.16907 | 3051 ft | 118 kts | 2° |
| 2026-04-20 15:22 | 52.20464 | 10.16772 | 3053 ft | 118 kts | 2° |
| 2026-04-20 15:22 | 52.21291 | 10.16637 | 3053 ft | 120 kts | 1° |
| 2026-04-20 15:22 | 52.22119 | 10.16498 | 3052 ft | 119 kts | 2° |
| 2026-04-20 15:23 | 52.22931 | 10.16363 | 3054 ft | 118 kts | 2° |
| 2026-04-20 15:23 | 52.23754 | 10.16227 | 3049 ft | 119 kts | 2° |
| 2026-04-20 15:23 | 52.24578 | 10.16091 | 3049 ft | 119 kts | 2° |
| 2026-04-20 15:23 | 52.25400 | 10.15956 | 3049 ft | 118 kts | 2° |
| 2026-04-20 15:24 | 52.26222 | 10.15821 | 3049 ft | 118 kts | 2° |
| 2026-04-20 15:24 | 52.27026 | 10.15689 | 3049 ft | 118 kts | 2° |
| 2026-04-20 15:24 | 52.27846 | 10.15554 | 3050 ft | 118 kts | 2° |
| 2026-04-20 15:24 | 52.28666 | 10.15419 | 3050 ft | 119 kts | 2° |
| 2026-04-20 15:25 | 52.29488 | 10.15283 | 3053 ft | 119 kts | 2° |
| 2026-04-20 15:25 | 52.30315 | 10.15147 | 3052 ft | 120 kts | 2° |
| 2026-04-20 15:25 | 52.31146 | 10.15010 | 3053 ft | 120 kts | 2° |
| 2026-04-20 15:25 | 52.31975 | 10.14872 | 3053 ft | 119 kts | 2° |
| 2026-04-20 15:26 | 52.32798 | 10.14736 | 3052 ft | 119 kts | 2° |
| 2026-04-20 15:26 | 52.33618 | 10.14600 | 3047 ft | 118 kts | 1° |
| 2026-04-20 15:26 | 52.34432 | 10.14463 | 3050 ft | 118 kts | 1° |
| 2026-04-20 15:26 | 52.35239 | 10.14312 | 3055 ft | 118 kts | 1° |
| 2026-04-20 15:27 | 52.36040 | 10.14155 | 3095 ft | 112 kts | 0° |
| 2026-04-20 15:27 | 52.36811 | 10.13997 | 3032 ft | 114 kts | 1° |
| 2026-04-20 15:27 | 52.37619 | 10.13846 | 3022 ft | 118 kts | 0° |
| 2026-04-20 15:27 | 52.38443 | 10.13689 | 3012 ft | 120 kts | 0° |
| 2026-04-20 15:28 | 52.39269 | 10.13528 | 3006 ft | 120 kts | 0° |
| 2026-04-20 15:28 | 52.40095 | 10.13367 | 3003 ft | 119 kts | 0° |
| 2026-04-20 15:28 | 52.40923 | 10.13207 | 3003 ft | 120 kts | 0° |
| 2026-04-20 15:28 | 52.41751 | 10.13045 | 3003 ft | 119 kts | 0° |
| 2026-04-20 15:29 | 52.42573 | 10.12836 | 3003 ft | 121 kts | 353° |
| 2026-04-20 15:29 | 52.43108 | 10.12558 | 3002 ft | 123 kts | 348° |
| 2026-04-20 15:29 | 52.43911 | 10.12074 | 3003 ft | 123 kts | 347° |
| 2026-04-20 15:29 | 52.44711 | 10.11578 | 3004 ft | 123 kts | 347° |
| 2026-04-20 15:30 | 52.45513 | 10.11080 | 3000 ft | 123 kts | 347° |
| 2026-04-20 15:30 | 52.46316 | 10.10581 | 3002 ft | 123 kts | 347° |
| 2026-04-20 15:30 | 52.47116 | 10.10085 | 3002 ft | 123 kts | 347° |
| 2026-04-20 15:30 | 52.47918 | 10.09586 | 3003 ft | 123 kts | 347° |
| 2026-04-20 15:31 | 52.48718 | 10.09063 | 3004 ft | 124 kts | 346° |
| 2026-04-20 15:31 | 52.49514 | 10.08518 | 3004 ft | 124 kts | 346° |
| 2026-04-20 15:31 | 52.50301 | 10.07976 | 2993 ft | 124 kts | 345° |
| 2026-04-20 15:31 | 52.51085 | 10.07417 | 2666 ft | 123 kts | 343° |
| 2026-04-20 15:32 | 52.51899 | 10.06828 | 2266 ft | 130 kts | 341° |
| 2026-04-20 15:32 | 52.52712 | 10.06245 | 1888 ft | 125 kts | 341° |
| 2026-04-20 15:32 | 52.53518 | 10.05721 | 1493 ft | 124 kts | 341° |
| 2026-04-20 15:32 | 52.54317 | 10.05209 | 1098 ft | 121 kts | 339° |
| 2026-04-20 15:33 | 52.55122 | 10.04711 | 802 ft | 129 kts | 338° |
| 2026-04-20 15:33 | 52.55998 | 10.04368 | 753 ft | 130 kts | 353° |
| 2026-04-20 15:33 | 52.56888 | 10.04497 | 652 ft | 126 kts | 5° |
| 2026-04-20 15:33 | 52.57716 | 10.04755 | 687 ft | 117 kts | 10° |
| 2026-04-20 15:34 | 52.58460 | 10.05003 | 682 ft | 101 kts | 8° |
| 2026-04-20 15:34 | 52.59088 | 10.05182 | 580 ft | 81 kts | 4° |
| 2026-04-20 15:34 | 52.59348 | 10.04673 | 369 ft | 60 kts | 266° |
| 2026-04-20 15:34 | 52.59347 | 10.04630 | 362 ft | 60 kts | 264° |
| 2026-04-20 15:35 | 52.59297 | 10.04007 | 227 ft | 44 kts | 259° |
| 2026-04-20 15:35 | 52.59257 | 10.03588 | 161 ft | 25 kts | 260° |
| 2026-04-20 15:35 | 52.59317 | 10.03462 | 142 ft | 15 kts | 350° |
| 2026-04-20 15:35 | 52.59393 | 10.03447 | 143 ft | 9 kts | 1° |
| 2026-04-20 15:36 | 52.59457 | 10.03423 | 145 ft | 11 kts | 335° |
| 2026-04-20 15:36 | 52.59520 | 10.03388 | 145 ft | 5 kts | 269° |
| 2026-04-20 15:36 | 52.59528 | 10.03376 | 139 ft | 0 kts | 261° |
| 2026-04-20 15:36 | 52.59528 | 10.03375 | 134 ft | 0 kts | 260° |